CheckWX is a tool to help pilots better visualize weather data.  It is not intended as a substitute for an official pre-flight weather briefing.

07:11:35 UTC

KBVO TAF
Bartlesville Municipal Airport
Bartlesville, Oklahoma, USA
KBVO 200520Z 2006/2106 00000KT P6SM SCT250 FM201600 19006KT P6SM SCT040 SCT250 FM210100 16003KT P6SM FEW250

Jun-20@
06:00 UTC

Jun-20 @ 06:00 UTC

Jun-20@
16:00 UTC

Jun-20 @ 16:00 UTC

KBVO 200520Z 2006/2106 00000KT P6SM SCT250
Cloud Levels
  • Scattered at 25,000' AGL

Jun-20@
16:00 UTC

Jun-20 @ 16:00 UTC

Jun-21@
01:00 UTC

Jun-21 @ 01:00 UTC

FM201600 19006KT P6SM SCT040 SCT250

From

From Standard forecast or significant change

Wind
  • 190° at 6 KTS
Cloud Levels
  • Scattered at 4,000' AGL
  • Scattered at 25,000' AGL

Jun-21@
01:00 UTC

Jun-21 @ 01:00 UTC

Jun-21@
06:00 UTC

Jun-21 @ 06:00 UTC

FM210100 16003KT P6SM FEW250

From

From Standard forecast or significant change

Wind
  • 160° at 3 KTS
Cloud Levels
  • Few at 25,000' AGL